createdAt,value
2023-05-25T00:00:11.333Z,99.90
2023-05-25T00:02:39.662Z,99.90
2023-05-25T00:05:09.475Z,99.90
2023-05-25T00:07:36.308Z,99.90
2023-05-25T00:10:03.593Z,99.90
2023-05-25T00:12:30.604Z,99.90
2023-05-25T00:14:57.340Z,99.90
2023-05-25T00:17:24.438Z,99.90
2023-05-25T00:19:51.564Z,99.90
2023-05-25T00:22:18.373Z,99.90
2023-05-25T00:24:45.082Z,99.90
2023-05-25T00:27:11.816Z,99.90
2023-05-25T00:29:38.504Z,99.90
2023-05-25T00:32:05.740Z,99.90
2023-05-25T00:34:32.476Z,99.90
2023-05-25T00:36:59.251Z,99.90
2023-05-25T00:39:27.965Z,99.90
2023-05-25T00:41:56.252Z,99.90
2023-05-25T00:44:23.020Z,99.90
2023-05-25T00:46:52.073Z,99.90
2023-05-25T00:49:20.817Z,99.90
2023-05-25T00:51:48.077Z,99.90
2023-05-25T00:54:18.649Z,99.90
2023-05-25T00:57:04.748Z,99.90
2023-05-25T00:59:35.794Z,99.90
2023-05-25T01:02:07.571Z,99.90
2023-05-25T01:04:38.288Z,99.90
2023-05-25T01:07:08.599Z,99.90
2023-05-25T01:09:39.264Z,99.90
2023-05-25T01:12:07.554Z,99.90
2023-05-25T01:14:35.081Z,99.90
2023-05-25T01:17:03.267Z,99.90
2023-05-25T01:19:33.699Z,99.90
2023-05-25T01:22:10.838Z,99.90
2023-05-25T01:24:47.348Z,99.90
2023-05-25T01:27:16.819Z,99.90
2023-05-25T01:29:45.870Z,99.90
2023-05-25T01:32:14.092Z,99.90
2023-05-25T01:34:43.172Z,99.90
2023-05-25T01:37:13.314Z,99.90
2023-05-25T01:39:41.264Z,99.90
2023-05-25T01:42:08.419Z,99.90
2023-05-25T01:44:36.175Z,99.90
2023-05-25T01:47:10.454Z,99.90
2023-05-25T01:49:52.171Z,99.90
2023-05-25T01:52:23.541Z,99.90
2023-05-25T01:54:59.749Z,99.90
2023-05-25T01:57:29.143Z,99.90
2023-05-25T02:00:02.722Z,99.90
2023-05-25T02:02:43.815Z,99.90
2023-05-25T02:05:11.763Z,99.90
2023-05-25T02:07:38.748Z,99.90
2023-05-25T02:10:06.114Z,99.90
2023-05-25T02:12:32.876Z,99.90
2023-05-25T02:14:59.584Z,99.90
2023-05-25T02:17:27.953Z,99.90
2023-05-25T02:19:54.894Z,99.90
2023-05-25T02:22:22.539Z,99.90
2023-05-25T02:24:49.585Z,99.90
2023-05-25T02:27:16.464Z,99.90
2023-05-25T02:29:43.260Z,99.90
2023-05-25T02:32:09.969Z,99.90
2023-05-25T02:34:36.779Z,99.90
2023-05-25T02:37:03.664Z,99.90
2023-05-25T02:39:30.495Z,99.90
2023-05-25T02:41:59.153Z,99.90
2023-05-25T02:44:26.775Z,99.90
2023-05-25T02:46:53.575Z,99.90
2023-05-25T02:49:20.462Z,99.90
2023-05-25T02:51:48.095Z,99.90
2023-05-25T02:54:14.967Z,99.90
2023-05-25T02:56:42.451Z,99.90
2023-05-25T02:59:09.552Z,99.90
2023-05-25T03:01:36.668Z,99.90
2023-05-25T03:04:03.756Z,99.90
2023-05-25T03:06:36.533Z,99.90
2023-05-25T03:09:09.733Z,99.90
2023-05-25T03:11:38.170Z,99.90
2023-05-25T03:14:04.982Z,99.90
2023-05-25T03:16:36.161Z,99.90
2023-05-25T03:19:05.405Z,99.90
2023-05-25T03:21:34.336Z,99.90
2023-05-25T03:24:01.060Z,99.90
2023-05-25T03:26:28.887Z,99.90
2023-05-25T03:28:55.667Z,99.90
2023-05-25T03:31:23.531Z,99.90
2023-05-25T03:33:50.347Z,99.90
2023-05-25T03:36:18.664Z,99.90
2023-05-25T03:38:45.443Z,99.90
2023-05-25T03:41:12.181Z,99.90
2023-05-25T03:43:38.863Z,99.90
2023-05-25T03:46:07.501Z,99.90
2023-05-25T03:48:34.247Z,99.90
2023-05-25T03:51:01.028Z,99.90
2023-05-25T03:53:27.831Z,99.90
2023-05-25T03:55:54.629Z,99.90
2023-05-25T03:58:21.351Z,99.90
2023-05-25T04:00:51.670Z,99.90
2023-05-25T04:03:18.898Z,99.90
2023-05-25T04:05:46.024Z,99.90
2023-05-25T04:08:18.086Z,99.90
2023-05-25T04:10:48.064Z,99.90
2023-05-25T04:13:14.962Z,99.90
2023-05-25T04:15:42.171Z,99.90
2023-05-25T04:18:13.741Z,99.90
2023-05-25T04:20:41.025Z,99.90
2023-05-25T04:23:10.729Z,99.90
2023-05-25T04:25:38.816Z,99.90
2023-05-25T04:28:08.343Z,99.90
2023-05-25T04:30:56.800Z,99.90
2023-05-25T04:33:31.213Z,99.90
2023-05-25T04:36:03.870Z,99.90
2023-05-25T04:38:30.800Z,99.90
2023-05-25T04:40:59.571Z,99.90
2023-05-25T04:43:27.811Z,99.90
2023-05-25T04:45:54.999Z,99.90
2023-05-25T04:48:22.765Z,99.90
2023-05-25T04:50:50.048Z,99.90
2023-05-25T04:53:17.122Z,99.90
2023-05-25T04:55:44.084Z,99.90
2023-05-25T05:00:40.181Z,99.90
2023-05-25T05:03:07.040Z,99.90
2023-05-25T05:05:35.989Z,99.90
2023-05-25T05:08:04.468Z,99.90
2023-05-25T05:10:32.181Z,99.90
2023-05-25T05:12:59.354Z,99.90
2023-05-25T05:15:26.837Z,99.90
2023-05-25T05:17:54.484Z,99.90
2023-05-25T05:20:21.571Z,99.90
2023-05-25T05:22:48.374Z,99.90
2023-05-25T05:25:15.259Z,99.90
2023-05-25T05:27:42.010Z,99.30
2023-05-25T05:30:17.127Z,97.20
2023-05-25T05:32:46.021Z,95.30
2023-05-25T05:35:13.714Z,94.30
2023-05-25T05:37:43.982Z,93.40
2023-05-25T05:40:11.848Z,92.30
2023-05-25T05:42:41.019Z,91.30
2023-05-25T05:45:08.787Z,91.60
2023-05-25T05:47:35.783Z,91.50
2023-05-25T05:50:03.101Z,91.30
2023-05-25T05:52:30.406Z,90.80
2023-05-25T05:54:57.164Z,91.70
2023-05-25T05:57:24.048Z,91.50
2023-05-25T05:59:50.896Z,90.40
2023-05-25T06:02:18.420Z,90.40
2023-05-25T06:04:45.585Z,90.10
2023-05-25T06:07:12.359Z,91.00
2023-05-25T06:09:39.205Z,91.90
2023-05-25T06:12:06.594Z,93.30
2023-05-25T06:14:34.134Z,94.70
2023-05-25T06:17:03.110Z,95.70
2023-05-25T06:19:30.383Z,96.50
2023-05-25T06:21:57.663Z,96.50
2023-05-25T06:24:24.411Z,97.30
2023-05-25T06:26:51.131Z,97.60
2023-05-25T06:29:19.577Z,97.20
2023-05-25T06:31:46.492Z,97.60
2023-05-25T06:34:13.292Z,97.80
2023-05-25T06:36:41.779Z,97.80
2023-05-25T06:39:08.803Z,97.90
2023-05-25T06:41:37.008Z,97.30
2023-05-25T06:44:03.890Z,97.30
2023-05-25T06:46:32.880Z,96.80
2023-05-25T06:49:00.960Z,96.20
2023-05-25T06:51:28.269Z,96.30
2023-05-25T06:53:55.962Z,96.20
2023-05-25T06:56:23.494Z,96.60
2023-05-25T06:58:50.853Z,96.80
2023-05-25T07:01:17.675Z,96.70
2023-05-25T07:03:44.441Z,96.70
2023-05-25T07:06:12.184Z,96.60
2023-05-25T07:08:38.991Z,96.50
2023-05-25T07:11:05.904Z,96.60
2023-05-25T07:13:32.581Z,96.20
2023-05-25T07:15:59.378Z,96.40
2023-05-25T07:18:26.348Z,96.40
2023-05-25T07:20:53.420Z,96.00
2023-05-25T07:23:20.194Z,96.30
2023-05-25T07:25:47.153Z,96.40
2023-05-25T07:28:14.141Z,96.00
2023-05-25T07:30:41.413Z,95.60
2023-05-25T07:33:08.256Z,95.70
2023-05-25T07:35:35.492Z,95.50
2023-05-25T07:38:07.081Z,95.50
2023-05-25T07:40:33.812Z,95.70
2023-05-25T07:43:00.488Z,95.50
2023-05-25T07:45:27.272Z,95.20
2023-05-25T07:47:54.035Z,94.80
2023-05-25T07:50:20.809Z,94.90
2023-05-25T07:52:47.632Z,95.20
2023-05-25T07:55:14.337Z,94.80
2023-05-25T07:57:41.244Z,94.10
2023-05-25T08:00:09.415Z,94.40
2023-05-25T08:02:42.230Z,94.20
2023-05-25T08:05:10.006Z,93.60
2023-05-25T08:07:36.995Z,94.10
2023-05-25T08:10:04.782Z,93.80
2023-05-25T08:12:46.881Z,93.90
2023-05-25T08:15:15.290Z,93.40
2023-05-25T08:17:42.617Z,94.40
2023-05-25T08:20:10.627Z,94.10
2023-05-25T08:22:37.613Z,93.70
2023-05-25T08:25:05.382Z,93.90
2023-05-25T08:27:35.218Z,93.70
2023-05-25T08:30:02.663Z,93.10
2023-05-25T08:32:29.383Z,93.00
2023-05-25T08:34:56.164Z,93.00
2023-05-25T08:37:23.596Z,92.90
2023-05-25T08:39:50.638Z,92.70
2023-05-25T08:42:17.405Z,93.30
2023-05-25T08:44:44.200Z,92.40
2023-05-25T08:47:12.299Z,91.80
2023-05-25T08:49:39.728Z,91.90
2023-05-25T08:52:11.283Z,92.50
2023-05-25T08:54:38.786Z,92.30
2023-05-25T08:57:12.619Z,91.90
2023-05-25T09:00:04.056Z,91.90
2023-05-25T09:02:42.345Z,91.90
2023-05-25T09:05:09.616Z,91.70
2023-05-25T09:07:36.460Z,92.00
2023-05-25T09:10:03.660Z,91.80
2023-05-25T09:12:31.578Z,91.10
2023-05-25T09:14:59.293Z,90.50
2023-05-25T09:17:26.828Z,91.70
2023-05-25T09:19:54.140Z,92.20
2023-05-25T09:22:21.038Z,92.10
2023-05-25T09:24:48.564Z,91.90
2023-05-25T09:27:20.579Z,91.50
2023-05-25T09:29:49.382Z,92.00
2023-05-25T09:32:17.361Z,92.00
2023-05-25T09:34:46.483Z,91.50
2023-05-25T09:37:16.398Z,91.80
2023-05-25T09:39:43.834Z,92.10
2023-05-25T09:42:11.821Z,92.30
2023-05-25T09:44:39.682Z,91.90
2023-05-25T09:47:06.575Z,90.50
2023-05-25T09:49:33.432Z,91.30
2023-05-25T09:52:00.675Z,90.70
2023-05-25T09:54:27.477Z,90.80
2023-05-25T09:56:54.571Z,90.90
2023-05-25T09:59:22.809Z,90.80
2023-05-25T10:01:53.516Z,91.20
2023-05-25T10:04:20.891Z,91.80
2023-05-25T10:06:49.956Z,91.40
2023-05-25T10:09:19.361Z,89.50
2023-05-25T10:11:47.485Z,88.90
2023-05-25T10:14:22.539Z,90.00
2023-05-25T10:16:53.160Z,90.50
2023-05-25T10:19:24.655Z,89.70
2023-05-25T10:21:58.797Z,88.10
2023-05-25T10:24:34.616Z,89.60
2023-05-25T10:27:14.777Z,87.10
2023-05-25T10:29:49.574Z,86.40
2023-05-25T10:32:17.331Z,88.30
2023-05-25T10:34:44.827Z,87.90
2023-05-25T10:37:14.234Z,86.50
2023-05-25T10:39:44.067Z,84.70
2023-05-25T10:42:12.959Z,83.00
2023-05-25T10:44:42.108Z,82.70
2023-05-25T10:47:09.813Z,82.50
2023-05-25T10:49:56.254Z,82.10
2023-05-25T10:52:30.735Z,82.70
2023-05-25T10:55:02.071Z,82.00
2023-05-25T10:57:29.071Z,82.60
2023-05-25T11:00:06.805Z,79.80
2023-05-25T11:02:55.686Z,80.00
2023-05-25T11:05:31.280Z,80.50
2023-05-25T11:07:59.011Z,80.50
2023-05-25T11:10:50.594Z,81.50
2023-05-25T11:13:23.582Z,82.20
2023-05-25T11:16:09.404Z,81.80
2023-05-25T11:18:41.485Z,81.80
2023-05-25T11:21:12.924Z,82.00
2023-05-25T11:23:56.167Z,82.50
2023-05-25T11:26:32.110Z,84.00
2023-05-25T11:29:00.125Z,83.10
2023-05-25T11:31:35.228Z,82.60
2023-05-25T11:34:06.104Z,81.90
2023-05-25T11:36:35.797Z,81.20
2023-05-25T11:39:14.231Z,81.60
2023-05-25T11:41:55.868Z,81.40
2023-05-25T11:44:41.442Z,81.00
2023-05-25T11:47:14.401Z,82.30
2023-05-25T11:49:42.264Z,81.80
2023-05-25T11:52:10.470Z,81.60
2023-05-25T11:54:41.100Z,81.20
2023-05-25T11:57:19.229Z,81.60
2023-05-25T11:59:54.521Z,81.40
2023-05-25T12:02:22.285Z,80.50
2023-05-25T12:04:55.212Z,81.90
2023-05-25T12:07:22.382Z,82.80
2023-05-25T12:09:49.235Z,83.50
2023-05-25T12:12:16.169Z,83.10
2023-05-25T12:14:51.931Z,81.80
2023-05-25T12:17:21.356Z,83.80
2023-05-25T12:19:48.511Z,83.90
2023-05-25T12:22:16.396Z,83.00
2023-05-25T12:24:43.282Z,83.90
2023-05-25T12:27:20.983Z,82.80
2023-05-25T12:29:48.395Z,83.00
2023-05-25T12:32:15.910Z,82.70
2023-05-25T12:34:43.031Z,83.70
2023-05-25T12:37:20.994Z,82.70
2023-05-25T12:39:48.409Z,83.30
2023-05-25T12:42:16.983Z,80.70
2023-05-25T12:44:46.358Z,82.40
2023-05-25T12:47:22.422Z,80.90
2023-05-25T12:49:53.993Z,81.20
2023-05-25T12:52:32.983Z,80.50
2023-05-25T12:55:18.783Z,81.00
2023-05-25T12:57:47.066Z,82.50
2023-05-25T13:00:14.285Z,81.50
2023-05-25T13:02:49.614Z,80.90
2023-05-25T13:05:22.121Z,80.50
2023-05-25T13:07:49.280Z,80.80
2023-05-25T13:10:19.726Z,80.70
2023-05-25T13:12:50.947Z,81.20
2023-05-25T13:15:22.379Z,81.00
2023-05-25T13:17:50.714Z,82.10
2023-05-25T13:20:19.463Z,82.40
2023-05-25T13:22:47.268Z,82.20
2023-05-25T13:25:14.789Z,83.00
2023-05-25T13:27:46.281Z,84.00
2023-05-25T13:30:14.072Z,82.70
2023-05-25T13:32:44.612Z,81.70
2023-05-25T13:35:18.360Z,82.70
2023-05-25T13:37:45.906Z,82.10
2023-05-25T13:40:13.413Z,83.60
2023-05-25T13:42:40.372Z,83.00
2023-05-25T13:45:07.813Z,83.60
2023-05-25T13:47:34.685Z,83.60
2023-05-25T13:50:01.490Z,82.70
2023-05-25T13:52:28.633Z,83.30
2023-05-25T13:54:55.343Z,83.00
2023-05-25T13:57:22.518Z,82.10
2023-05-25T13:59:49.325Z,82.30
2023-05-25T14:02:16.467Z,82.10
2023-05-25T14:04:43.332Z,81.70
2023-05-25T14:07:10.087Z,80.60
2023-05-25T14:09:36.804Z,78.20
2023-05-25T14:12:03.790Z,80.10
2023-05-25T14:14:32.655Z,79.30
2023-05-25T14:17:00.985Z,78.50
2023-05-25T14:19:28.083Z,79.40
2023-05-25T14:24:24.572Z,78.70
2023-05-25T14:26:51.274Z,77.50
2023-05-25T14:29:18.011Z,79.00
2023-05-25T14:31:44.814Z,77.20
2023-05-25T14:34:11.648Z,78.30
2023-05-25T14:36:38.339Z,77.10
2023-05-25T14:39:05.207Z,77.50
2023-05-25T14:41:31.891Z,77.50
2023-05-25T14:43:58.588Z,76.90
2023-05-25T14:46:25.375Z,76.50
2023-05-25T14:48:52.111Z,76.90
2023-05-25T14:51:18.828Z,77.10
2023-05-25T14:53:45.935Z,78.00
2023-05-25T14:56:12.679Z,75.20
2023-05-25T14:58:39.453Z,75.90
2023-05-25T15:01:06.174Z,77.40
2023-05-25T15:03:33.100Z,77.20
2023-05-25T15:05:59.924Z,77.40
2023-05-25T15:08:26.960Z,76.90
2023-05-25T15:10:53.824Z,77.70
2023-05-25T15:13:22.534Z,78.40
2023-05-25T15:15:51.999Z,78.50
2023-05-25T15:18:18.885Z,76.20
2023-05-25T15:20:45.817Z,76.70
2023-05-25T15:23:12.613Z,77.30
2023-05-25T15:25:39.374Z,77.70
2023-05-25T15:28:06.768Z,78.50
2023-05-25T15:30:34.411Z,78.20
2023-05-25T15:33:02.067Z,77.70
2023-05-25T15:35:32.217Z,77.80
2023-05-25T15:37:59.731Z,77.50
2023-05-25T15:40:26.876Z,78.20
2023-05-25T15:42:53.695Z,77.90
2023-05-25T15:45:20.387Z,77.50
2023-05-25T15:47:47.157Z,78.20
2023-05-25T15:50:13.889Z,76.20
2023-05-25T15:52:41.551Z,77.10
2023-05-25T15:55:08.922Z,76.40
2023-05-25T15:57:35.605Z,77.30
2023-05-25T16:00:02.380Z,76.40
2023-05-25T16:02:32.521Z,75.70
2023-05-25T16:04:59.409Z,76.30
2023-05-25T16:07:26.475Z,77.00
2023-05-25T16:09:53.170Z,77.00
2023-05-25T16:12:24.700Z,76.30
2023-05-25T16:14:52.396Z,77.50
2023-05-25T16:17:19.512Z,76.50
2023-05-25T16:19:48.774Z,76.20
2023-05-25T16:22:15.496Z,77.20
2023-05-25T16:24:42.227Z,77.80
2023-05-25T16:27:09.034Z,77.30
2023-05-25T16:29:35.713Z,77.70
2023-05-25T16:32:02.467Z,78.10
2023-05-25T16:34:29.185Z,77.70
2023-05-25T16:36:55.988Z,77.70
2023-05-25T16:39:23.168Z,76.00
2023-05-25T16:41:50.876Z,75.60
2023-05-25T16:44:17.850Z,76.50
2023-05-25T16:46:44.674Z,75.60
2023-05-25T16:49:11.403Z,75.60
2023-05-25T16:51:38.086Z,75.40
2023-05-25T16:54:05.103Z,75.40
2023-05-25T16:56:31.775Z,75.60
2023-05-25T16:58:58.449Z,76.00
2023-05-25T17:01:25.262Z,76.40
2023-05-25T17:03:52.568Z,77.20
2023-05-25T17:06:19.358Z,76.60
2023-05-25T17:08:46.108Z,76.60
2023-05-25T17:11:12.820Z,76.40
2023-05-25T17:13:39.579Z,77.00
2023-05-25T17:16:06.403Z,76.90
2023-05-25T17:18:33.187Z,77.70
2023-05-25T17:21:00.137Z,77.30
2023-05-25T17:23:26.842Z,78.70
2023-05-25T17:25:53.547Z,78.40
2023-05-25T17:28:20.309Z,78.50
2023-05-25T17:30:48.645Z,78.70
2023-05-25T17:33:15.482Z,78.70
2023-05-25T17:35:42.304Z,78.90
2023-05-25T17:38:09.012Z,79.30
2023-05-25T17:40:35.997Z,79.10
2023-05-25T17:43:02.745Z,79.80
2023-05-25T17:45:29.452Z,79.80
2023-05-25T17:47:57.228Z,80.30
2023-05-25T17:50:24.104Z,80.00
2023-05-25T17:52:50.972Z,80.80
2023-05-25T17:55:17.904Z,81.10
2023-05-25T17:57:44.586Z,81.60
2023-05-25T18:00:12.082Z,82.20
2023-05-25T18:02:41.616Z,82.10
2023-05-25T18:05:08.769Z,82.80
2023-05-25T18:07:35.531Z,82.80
2023-05-25T18:10:02.278Z,83.30
2023-05-25T18:12:28.985Z,83.40
2023-05-25T18:14:55.674Z,83.80
2023-05-25T18:17:22.413Z,84.30
2023-05-25T18:19:49.127Z,84.70
2023-05-25T18:22:16.784Z,85.30
2023-05-25T18:24:43.497Z,85.40
2023-05-25T18:27:10.341Z,85.70
2023-05-25T18:29:37.069Z,86.10
2023-05-25T18:32:03.959Z,86.00
2023-05-25T18:34:30.721Z,86.70
2023-05-25T18:36:57.476Z,87.10
2023-05-25T18:39:24.190Z,87.50
2023-05-25T18:41:50.907Z,87.60
2023-05-25T18:44:17.614Z,88.20
2023-05-25T18:46:46.253Z,88.40
2023-05-25T18:49:13.124Z,88.40
2023-05-25T18:51:40.151Z,88.60
2023-05-25T18:54:06.845Z,89.80
2023-05-25T18:56:33.513Z,89.80
2023-05-25T18:59:00.622Z,90.00
2023-05-25T19:01:27.315Z,90.00
2023-05-25T19:03:56.772Z,90.20
2023-05-25T19:06:25.364Z,90.60
2023-05-25T19:08:52.085Z,90.50
2023-05-25T19:11:19.989Z,90.80
2023-05-25T19:13:46.862Z,91.30
2023-05-25T19:16:13.866Z,91.50
2023-05-25T19:18:40.690Z,91.60
2023-05-25T19:21:07.427Z,91.70
2023-05-25T19:23:35.084Z,91.50
2023-05-25T19:26:01.930Z,91.90
2023-05-25T19:28:28.629Z,91.80
2023-05-25T19:30:55.331Z,92.20
2023-05-25T19:33:22.078Z,92.40
2023-05-25T19:35:48.842Z,92.60
2023-05-25T19:38:15.949Z,92.70
2023-05-25T19:40:42.723Z,93.50
2023-05-25T19:43:09.911Z,93.90
2023-05-25T19:45:36.720Z,94.40
2023-05-25T19:48:03.798Z,94.20
2023-05-25T19:50:30.847Z,94.60
2023-05-25T19:52:58.603Z,94.90
2023-05-25T19:55:25.703Z,95.40
2023-05-25T19:57:52.891Z,95.60
2023-05-25T20:00:26.481Z,96.10
2023-05-25T20:02:54.105Z,95.90
2023-05-25T20:05:21.099Z,96.20
2023-05-25T20:07:47.876Z,96.20
2023-05-25T20:10:14.651Z,96.50
2023-05-25T20:12:41.439Z,96.30
2023-05-25T20:15:08.505Z,96.40
2023-05-25T20:17:35.327Z,96.50
2023-05-25T20:20:03.810Z,97.10
2023-05-25T20:22:32.097Z,96.90
2023-05-25T20:25:00.621Z,97.00
2023-05-25T20:27:27.934Z,97.20
2023-05-25T20:29:54.956Z,97.40
2023-05-25T20:32:21.898Z,97.60
2023-05-25T20:34:48.590Z,97.80
2023-05-25T20:37:15.482Z,98.00
2023-05-25T20:39:42.158Z,98.30
2023-05-25T20:42:10.139Z,98.80
2023-05-25T20:44:36.945Z,98.80
2023-05-25T20:47:03.900Z,98.90
2023-05-25T20:49:30.621Z,98.90
2023-05-25T20:51:57.347Z,99.20
2023-05-25T20:54:24.159Z,99.90
2023-05-25T20:56:51.147Z,99.90
2023-05-25T20:59:17.987Z,99.90
2023-05-25T21:01:44.807Z,99.90
2023-05-25T21:04:11.621Z,99.90
2023-05-25T21:06:38.407Z,99.90
2023-05-25T21:09:05.116Z,99.90
2023-05-25T21:11:31.779Z,99.90
2023-05-25T21:13:58.483Z,99.90
2023-05-25T21:16:25.609Z,99.90
2023-05-25T21:18:52.329Z,99.90
2023-05-25T21:21:19.035Z,99.90
2023-05-25T21:23:45.984Z,99.90
2023-05-25T21:26:12.687Z,99.90
2023-05-25T21:28:39.369Z,99.90
2023-05-25T21:31:06.163Z,99.90
2023-05-25T21:33:35.756Z,99.90
2023-05-25T21:36:03.750Z,99.90
2023-05-25T21:38:30.477Z,99.90
2023-05-25T21:40:58.606Z,99.90
2023-05-25T21:43:27.182Z,99.90
2023-05-25T21:45:53.983Z,99.90
2023-05-25T21:48:21.343Z,99.90
2023-05-25T21:50:52.689Z,99.90
2023-05-25T21:53:20.045Z,99.90
2023-05-25T21:55:47.824Z,99.90
2023-05-25T21:58:17.217Z,99.90
2023-05-25T22:00:44.065Z,99.90
2023-05-25T22:03:10.926Z,99.90
2023-05-25T22:05:37.817Z,99.90
2023-05-25T22:08:05.369Z,99.90
2023-05-25T22:10:32.250Z,99.90
2023-05-25T22:12:58.924Z,99.90
2023-05-25T22:15:25.654Z,99.90
2023-05-25T22:17:52.454Z,99.90
2023-05-25T22:20:19.550Z,99.90
2023-05-25T22:22:46.428Z,99.90
2023-05-25T22:25:13.391Z,99.90
2023-05-25T22:27:40.237Z,99.90
2023-05-25T22:30:07.570Z,99.90
2023-05-25T22:32:35.036Z,99.90
2023-05-25T22:35:02.338Z,99.90
2023-05-25T22:37:29.147Z,99.90
2023-05-25T22:39:55.903Z,99.90
2023-05-25T22:42:22.858Z,99.90
2023-05-25T22:44:51.077Z,99.90
2023-05-25T22:47:17.905Z,99.90
2023-05-25T22:49:44.864Z,99.90
2023-05-25T22:52:12.347Z,99.90
2023-05-25T22:54:39.667Z,99.90
2023-05-25T22:57:08.250Z,99.90
2023-05-25T22:59:35.034Z,99.90
2023-05-25T23:02:02.092Z,99.90
2023-05-25T23:04:28.787Z,99.90
2023-05-25T23:06:55.673Z,99.90
2023-05-25T23:09:22.338Z,99.90
2023-05-25T23:11:49.092Z,99.90
2023-05-25T23:14:15.841Z,99.90
2023-05-25T23:16:42.608Z,99.90
2023-05-25T23:19:09.378Z,99.90
2023-05-25T23:21:36.129Z,99.90
2023-05-25T23:24:02.945Z,99.90
2023-05-25T23:26:29.723Z,99.90
2023-05-25T23:28:56.415Z,99.90
2023-05-25T23:31:23.257Z,99.90
2023-05-25T23:33:50.001Z,99.90
2023-05-25T23:36:16.781Z,99.90
2023-05-25T23:38:43.521Z,99.90
2023-05-25T23:41:10.205Z,99.90
2023-05-25T23:43:36.948Z,99.90
2023-05-25T23:46:03.689Z,99.90
2023-05-25T23:48:30.396Z,99.90
2023-05-25T23:50:57.061Z,99.90
2023-05-25T23:53:23.813Z,99.90
2023-05-25T23:55:50.542Z,99.90
2023-05-25T23:58:17.213Z,99.90
